VAM | Vabird-VBD

Virtual Vabird! Aerolínea Virtual de habla hispana, desde 2011




 INFORMACIÓN METAR y TAF
METAR FOR MDPC
ADDS - METARS form results

(1534 UTC 08 March 2021)
Data provider http://aviationweather.gov/metar/data/
 
METAR text: MDPC 081500Z 05004KT 9999 SCT022 28/22 Q1020
Conditions at: MDPC (PUNTA CANA , DO) observed 1500 UTC 08 March 2021
Temperature: 28.0°C (82°F)
Dewpoint: 22.0°C (72°F) [RH = 70%]
Pressure (altimeter): 30.12 inches Hg (1020.0 mb)
Winds: from the NE (50 degrees) at 5 MPH (4 knots; 2.1 m/s)
Visibility: 6 or more miles (10+ km)
Ceiling: at least 12,000 feet AGL
Clouds: scattered clouds at 2200 feet AGL
Weather: no significant weather observed at this time

Forecast for: MDPC (PUNTA CANA , DO)
Text: TAF MDPC 081000Z 0812/0912 00000KT 9999 SCT016
Forecast period: 1200 UTC 08 March 2021 to 1200 UTC 09 March 2021
Forecast type: FROM: standard forecast or significant change
Winds: calm
Visibility: 6 or more miles (10+ km)
Ceiling: at least 12,000 feet AGL
Clouds: scattered clouds at 1600 feet AGL
Weather: no significant weather forecast for this period
Text: PROB30 0814/0820 7000 -RA BKN016
Forecast period: 1400 to 2000 UTC 08 March 2021
Forecast type: PROBABLE: 30 percent likelihood of the following during this time
Visibility: 4 miles (7 km)
Ceiling: 1600 feet AGL
Clouds: broken clouds at 1600 feet AGL
Weather: -RA  (light rain)

 MAPA DE AEROPUERTO

 INFORMACIÓN DE PISTA